Portada
METAR-TAF:

METAR-TAF

Aeropuertos :

Shearwater, Nueva Escocia, Canadá

latitud: 44-38N, longitud: 063-30W, altitud: 51 m

Observación

El informe se hizo hace 51 minutos, a las 13:00 UTC
Viento 28 kt del oeste con ráfagas de 40 kt
Temperatura 0°C
Humedad 51%
Presión 1005 hPa
Visibilidad: 24.1 km
Escasas nubes a una altura de 3500 ft
Escasas nubes a una altura de 25000 ft

METAR: CYAW 141300Z 27028G40KT 15SM FEW035 FEW250 M00/M09 A2968 RMK SC1CI1 DA-1350FT SLP051

Hora: 09:51 (13:51 UTC)

Pronóstico

El informe se hizo hace 1 hora y 45 minutos, a las 12:06 UTC
Pronóstico válido del 14 a las 12 UTC al 14 a las 24 UTC
Viento 30 kt del oeste con ráfagas de 45 kt
Visibilidad: 10 km
Escasas nubes a una altura de 3000 ft

TAF: CYAW 141206Z 1412/1424 28030G45KT P6SM FEW030 RMK NXT FCST BY 141800Z

Observaciones y pronósticos meteorológicos de más de 4000 aeropuertos (mensajes METAR y TAF).

Los puntos amarillos y rojos representan las estaciones disponibles.

Ponga el ratón en el punto deseado para ver el nombre de la estación.

Haga clic para ver las observaciones y los pronósticos meteorológicos.

Para cambiar el mapa : haga clic en los botones verdes con una cruz de color negro para hacer un zoom, en el botón verde con un guión para alejar o en las flechas verdes para mapas adyacentes.


METAR-TAF: